sensor_id;sensor_type;location;lat;lon;timestamp;pressure;altitude;pressure_sealevel;temperature;humidity
72570;BME280;60594;50.204;8.844;2023-03-16T00:01:05;100545.50;;;0.87;90.64
72570;BME280;60594;50.204;8.844;2023-03-16T00:03:33;100547.34;;;0.85;91.53
72570;BME280;60594;50.204;8.844;2023-03-16T00:05:59;100547.22;;;0.88;91.35
72570;BME280;60594;50.204;8.844;2023-03-16T00:08:26;100548.28;;;0.83;91.15
72570;BME280;60594;50.204;8.844;2023-03-16T00:10:52;100537.84;;;0.81;91.92
72570;BME280;60594;50.204;8.844;2023-03-16T00:13:21;100545.13;;;0.73;91.58
72570;BME280;60594;50.204;8.844;2023-03-16T00:15:57;100531.44;;;0.65;92.18
72570;BME280;60594;50.204;8.844;2023-03-16T00:18:30;100549.50;;;0.74;92.19
72570;BME280;60594;50.204;8.844;2023-03-16T00:21:04;100553.72;;;0.78;91.78
72570;BME280;60594;50.204;8.844;2023-03-16T00:23:32;100552.69;;;0.82;90.49
72570;BME280;60594;50.204;8.844;2023-03-16T00:26:04;100547.69;;;0.75;90.67
72570;BME280;60594;50.204;8.844;2023-03-16T00:28:32;100551.41;;;0.69;90.46
72570;BME280;60594;50.204;8.844;2023-03-16T00:31:06;100542.63;;;0.70;92.47
72570;BME280;60594;50.204;8.844;2023-03-16T00:33:33;100540.91;;;0.69;91.87
72570;BME280;60594;50.204;8.844;2023-03-16T00:36:01;100545.38;;;0.67;92.23
72570;BME280;60594;50.204;8.844;2023-03-16T00:38:30;100530.53;;;0.66;91.87
72570;BME280;60594;50.204;8.844;2023-03-16T00:40:57;100527.00;;;0.67;91.83
72570;BME280;60594;50.204;8.844;2023-03-16T00:43:23;100523.31;;;0.73;90.58
72570;BME280;60594;50.204;8.844;2023-03-16T00:45:59;100523.31;;;0.73;90.73
72570;BME280;60594;50.204;8.844;2023-03-16T00:48:32;100512.50;;;0.57;91.59
72570;BME280;60594;50.204;8.844;2023-03-16T00:51:05;100525.34;;;0.65;90.31
72570;BME280;60594;50.204;8.844;2023-03-16T00:53:33;100518.66;;;0.56;90.83
72570;BME280;60594;50.204;8.844;2023-03-16T00:56:00;100525.03;;;0.49;91.22
72570;BME280;60594;50.204;8.844;2023-03-16T00:58:34;100525.84;;;0.50;90.96
72570;BME280;60594;50.204;8.844;2023-03-16T01:01:06;100524.97;;;0.51;91.59
72570;BME280;60594;50.204;8.844;2023-03-16T01:03:34;100520.56;;;0.51;91.92
72570;BME280;60594;50.204;8.844;2023-03-16T01:06:09;100518.84;;;0.50;92.26
72570;BME280;60594;50.204;8.844;2023-03-16T01:08:37;100521.75;;;0.43;91.63
72570;BME280;60594;50.204;8.844;2023-03-16T01:11:17;100514.81;;;0.40;92.21
72570;BME280;60594;50.204;8.844;2023-03-16T01:13:44;100515.94;;;0.33;92.29
72570;BME280;60594;50.204;8.844;2023-03-16T01:16:13;100515.84;;;0.36;93.38
72570;BME280;60594;50.204;8.844;2023-03-16T01:18:39;100516.81;;;0.34;92.54
72570;BME280;60594;50.204;8.844;2023-03-16T01:21:08;100509.81;;;0.34;92.19
72570;BME280;60594;50.204;8.844;2023-03-16T01:23:35;100508.94;;;0.34;92.10
72570;BME280;60594;50.204;8.844;2023-03-16T01:26:03;100518.50;;;0.35;93.09
72570;BME280;60594;50.204;8.844;2023-03-16T01:28:30;100515.06;;;0.34;92.32
72570;BME280;60594;50.204;8.844;2023-03-16T01:31:00;100509.00;;;0.32;92.68
72570;BME280;60594;50.204;8.844;2023-03-16T01:33:28;100505.97;;;0.18;94.45
72570;BME280;60594;50.204;8.844;2023-03-16T01:35:57;100505.84;;;0.23;93.77
72570;BME280;60594;50.204;8.844;2023-03-16T01:38:25;100512.53;;;0.31;92.98
72570;BME280;60594;50.204;8.844;2023-03-16T01:40:53;100506.47;;;0.29;91.48
72570;BME280;60594;50.204;8.844;2023-03-16T01:43:21;100496.31;;;0.20;93.07
72570;BME280;60594;50.204;8.844;2023-03-16T01:48:59;100502.53;;;0.18;93.21
72570;BME280;60594;50.204;8.844;2023-03-16T01:51:42;100500.78;;;0.17;92.93
72570;BME280;60594;50.204;8.844;2023-03-16T01:54:19;100488.91;;;0.07;92.87
72570;BME280;60594;50.204;8.844;2023-03-16T01:56:55;100483.03;;;0.00;93.93
72570;BME280;60594;50.204;8.844;2023-03-16T01:59:27;100485.75;;;-0.03;93.53
72570;BME280;60594;50.204;8.844;2023-03-16T02:01:56;100472.88;;;-0.11;94.86
72570;BME280;60594;50.204;8.844;2023-03-16T02:06:59;100473.84;;;-0.13;95.24
72570;BME280;60594;50.204;8.844;2023-03-16T02:09:26;100472.16;;;-0.14;95.11
72570;BME280;60594;50.204;8.844;2023-03-16T02:11:53;100471.19;;;-0.12;95.60
72570;BME280;60594;50.204;8.844;2023-03-16T02:14:21;100461.88;;;-0.20;95.17
72570;BME280;60594;50.204;8.844;2023-03-16T02:16:51;100470.50;;;-0.17;95.54
72570;BME280;60594;50.204;8.844;2023-03-16T02:19:49;100475.78;;;-0.18;96.44
72570;BME280;60594;50.204;8.844;2023-03-16T02:22:18;100484.81;;;-0.28;96.30
72570;BME280;60594;50.204;8.844;2023-03-16T02:24:45;100491.91;;;-0.32;96.55
72570;BME280;60594;50.204;8.844;2023-03-16T02:27:13;100493.47;;;-0.26;96.86
72570;BME280;60594;50.204;8.844;2023-03-16T02:32:20;100482.84;;;-0.22;95.65
72570;BME280;60594;50.204;8.844;2023-03-16T02:34:47;100473.34;;;-0.24;95.38
72570;BME280;60594;50.204;8.844;2023-03-16T02:37:14;100483.72;;;-0.21;95.08
72570;BME280;60594;50.204;8.844;2023-03-16T02:39:41;100463.75;;;-0.24;95.30
72570;BME280;60594;50.204;8.844;2023-03-16T02:42:16;100452.41;;;-0.24;94.77
72570;BME280;60594;50.204;8.844;2023-03-16T02:44:47;100450.66;;;-0.24;94.49
72570;BME280;60594;50.204;8.844;2023-03-16T02:47:23;100447.06;;;-0.21;95.12
72570;BME280;60594;50.204;8.844;2023-03-16T02:49:52;100447.84;;;-0.19;94.28
72570;BME280;60594;50.204;8.844;2023-03-16T02:52:18;100445.09;;;-0.15;94.56
72570;BME280;60594;50.204;8.844;2023-03-16T02:54:45;100445.19;;;-0.18;94.30
72570;BME280;60594;50.204;8.844;2023-03-16T02:57:12;100448.88;;;-0.23;94.73
72570;BME280;60594;50.204;8.844;2023-03-16T02:59:39;100440.00;;;-0.19;94.48
72570;BME280;60594;50.204;8.844;2023-03-16T03:02:09;100439.06;;;-0.17;94.43
72570;BME280;60594;50.204;8.844;2023-03-16T03:04:36;100430.41;;;-0.19;93.81
72570;BME280;60594;50.204;8.844;2023-03-16T03:07:06;100437.44;;;-0.21;94.20
72570;BME280;60594;50.204;8.844;2023-03-16T03:09:45;100429.69;;;-0.24;94.95
72570;BME280;60594;50.204;8.844;2023-03-16T03:12:12;100416.72;;;-0.27;94.42
72570;BME280;60594;50.204;8.844;2023-03-16T03:14:38;100407.47;;;-0.38;95.62
72570;BME280;60594;50.204;8.844;2023-03-16T03:17:06;100420.34;;;-0.31;95.92
72570;BME280;60594;50.204;8.844;2023-03-16T03:19:33;100428.28;;;-0.34;96.28
72570;BME280;60594;50.204;8.844;2023-03-16T03:22:03;100436.84;;;-0.29;96.20
72570;BME280;60594;50.204;8.844;2023-03-16T03:24:33;100420.06;;;-0.23;95.16
72570;BME280;60594;50.204;8.844;2023-03-16T03:27:00;100432.31;;;-0.24;94.91
72570;BME280;60594;50.204;8.844;2023-03-16T03:29:31;100428.50;;;-0.15;94.86
72570;BME280;60594;50.204;8.844;2023-03-16T03:32:05;100435.78;;;-0.23;95.21
72570;BME280;60594;50.204;8.844;2023-03-16T03:34:32;100426.16;;;-0.23;96.54
72570;BME280;60594;50.204;8.844;2023-03-16T03:36:59;100430.31;;;-0.16;96.29
72570;BME280;60594;50.204;8.844;2023-03-16T03:39:26;100431.09;;;-0.14;95.77
72570;BME280;60594;50.204;8.844;2023-03-16T03:41:53;100427.59;;;-0.13;94.37
72570;BME280;60594;50.204;8.844;2023-03-16T03:44:22;100439.81;;;-0.39;95.15
72570;BME280;60594;50.204;8.844;2023-03-16T03:46:49;100434.63;;;-0.41;96.26
72570;BME280;60594;50.204;8.844;2023-03-16T03:49:16;100436.34;;;-0.67;97.14
72570;BME280;60594;50.204;8.844;2023-03-16T03:51:43;100439.72;;;-0.91;98.51
72570;BME280;60594;50.204;8.844;2023-03-16T03:54:16;100421.97;;;-0.82;98.79
72570;BME280;60594;50.204;8.844;2023-03-16T03:56:52;100428.31;;;-0.61;97.07
72570;BME280;60594;50.204;8.844;2023-03-16T03:59:19;100434.19;;;-0.55;97.12
72570;BME280;60594;50.204;8.844;2023-03-16T04:02:09;100435.53;;;-0.42;96.56
72570;BME280;60594;50.204;8.844;2023-03-16T04:04:42;100429.25;;;-0.36;95.73
72570;BME280;60594;50.204;8.844;2023-03-16T04:07:11;100427.50;;;-0.37;95.63
72570;BME280;60594;50.204;8.844;2023-03-16T04:09:39;100415.34;;;-0.38;96.04
72570;BME280;60594;50.204;8.844;2023-03-16T04:12:09;100416.06;;;-0.33;95.68
72570;BME280;60594;50.204;8.844;2023-03-16T04:14:36;100420.38;;;-0.32;94.90
72570;BME280;60594;50.204;8.844;2023-03-16T04:17:07;100420.38;;;-0.32;94.51
72570;BME280;60594;50.204;8.844;2023-03-16T04:19:35;100420.28;;;-0.29;95.22
72570;BME280;60594;50.204;8.844;2023-03-16T04:22:05;100420.34;;;-0.31;94.06
72570;BME280;60594;50.204;8.844;2023-03-16T04:24:32;100415.28;;;-0.37;94.22
72570;BME280;60594;50.204;8.844;2023-03-16T04:27:00;100422.41;;;-0.40;94.73
72570;BME280;60594;50.204;8.844;2023-03-16T04:29:28;100424.75;;;-0.33;94.45
72570;BME280;60594;50.204;8.844;2023-03-16T04:31:57;100424.97;;;-0.39;94.26
72570;BME280;60594;50.204;8.844;2023-03-16T04:34:25;100425.91;;;-0.41;95.12
72570;BME280;60594;50.204;8.844;2023-03-16T04:36:56;100417.41;;;-0.75;96.11
72570;BME280;60594;50.204;8.844;2023-03-16T04:39:22;100409.34;;;-0.68;96.58
72570;BME280;60594;50.204;8.844;2023-03-16T04:41:49;100399.44;;;-0.58;94.83
72570;BME280;60594;50.204;8.844;2023-03-16T04:44:20;100419.16;;;-0.48;95.07
72570;BME280;60594;50.204;8.844;2023-03-16T04:46:49;100406.75;;;-0.42;93.87
72570;BME280;60594;50.204;8.844;2023-03-16T04:49:17;100410.25;;;-0.43;94.00
72570;BME280;60594;50.204;8.844;2023-03-16T04:51:45;100398.22;;;-0.48;94.44
72570;BME280;60594;50.204;8.844;2023-03-16T04:54:14;100402.69;;;-0.52;94.16
72570;BME280;60594;50.204;8.844;2023-03-16T04:56:43;100399.56;;;-0.63;94.92
72570;BME280;60594;50.204;8.844;2023-03-16T04:59:23;100403.00;;;-0.61;95.47
72570;BME280;60594;50.204;8.844;2023-03-16T05:02:12;100400.63;;;-0.68;95.60
72570;BME280;60594;50.204;8.844;2023-03-16T05:04:39;100394.38;;;-0.64;96.04
72570;BME280;60594;50.204;8.844;2023-03-16T05:07:09;100402.09;;;-0.60;95.63
72570;BME280;60594;50.204;8.844;2023-03-16T05:09:39;100403.84;;;-0.60;95.00
72570;BME280;60594;50.204;8.844;2023-03-16T05:12:06;100410.50;;;-0.50;94.24
72570;BME280;60594;50.204;8.844;2023-03-16T05:14:33;100410.59;;;-0.53;94.85
72570;BME280;60594;50.204;8.844;2023-03-16T05:17:14;100418.34;;;-0.50;94.63
72570;BME280;60594;50.204;8.844;2023-03-16T05:19:41;100406.41;;;-0.59;94.40
72570;BME280;60594;50.204;8.844;2023-03-16T05:22:08;100413.53;;;-0.62;95.17
72570;BME280;60594;50.204;8.844;2023-03-16T05:24:36;100403.94;;;-0.63;96.16
72570;BME280;60594;50.204;8.844;2023-03-16T05:27:03;100404.72;;;-0.60;95.26
72570;BME280;60594;50.204;8.844;2023-03-16T05:29:30;100395.16;;;-0.61;93.74
72570;BME280;60594;50.204;8.844;2023-03-16T05:31:57;100408.75;;;-0.50;93.95
72570;BME280;60594;50.204;8.844;2023-03-16T05:34:26;100409.03;;;-0.59;93.80
72570;BME280;60594;50.204;8.844;2023-03-16T05:36:52;100408.28;;;-0.62;94.78
72570;BME280;60594;50.204;8.844;2023-03-16T05:39:21;100404.91;;;-0.66;95.13
72570;BME280;60594;50.204;8.844;2023-03-16T05:41:50;100404.84;;;-0.64;95.04
72570;BME280;60594;50.204;8.844;2023-03-16T05:44:22;100417.22;;;-0.69;95.36
72570;BME280;60594;50.204;8.844;2023-03-16T05:47:03;100406.81;;;-0.71;96.75
72570;BME280;60594;50.204;8.844;2023-03-16T05:49:31;100397.88;;;-0.64;96.23
72570;BME280;60594;50.204;8.844;2023-03-16T05:52:00;100393.50;;;-0.65;96.25
72570;BME280;60594;50.204;8.844;2023-03-16T05:54:27;100395.84;;;-0.56;94.80
72570;BME280;60594;50.204;8.844;2023-03-16T05:56:54;100395.91;;;-0.57;95.39
72570;BME280;60594;50.204;8.844;2023-03-16T05:59:21;100387.31;;;-0.61;96.26
72570;BME280;60594;50.204;8.844;2023-03-16T06:01:53;100385.56;;;-0.62;96.47
72570;BME280;60594;50.204;8.844;2023-03-16T06:04:20;100386.03;;;-0.49;95.76
72570;BME280;60594;50.204;8.844;2023-03-16T06:06:48;100380.66;;;-0.45;95.03
72570;BME280;60594;50.204;8.844;2023-03-16T06:09:19;100383.19;;;-0.42;95.19
72570;BME280;60594;50.204;8.844;2023-03-16T06:11:46;100390.03;;;-0.38;95.43
72570;BME280;60594;50.204;8.844;2023-03-16T06:14:15;100391.78;;;-0.38;95.89
72570;BME280;60594;50.204;8.844;2023-03-16T06:16:42;100393.75;;;-0.45;96.11
72570;BME280;60594;50.204;8.844;2023-03-16T06:19:09;100388.38;;;-0.40;96.48
72570;BME280;60594;50.204;8.844;2023-03-16T06:21:35;100388.25;;;-0.37;97.19
72570;BME280;60594;50.204;8.844;2023-03-16T06:24:07;100396.69;;;-0.28;96.26
72570;BME280;60594;50.204;8.844;2023-03-16T06:26:35;100401.56;;;-0.43;97.11
72570;BME280;60594;50.204;8.844;2023-03-16T06:29:04;100406.50;;;-0.62;99.57
72570;BME280;60594;50.204;8.844;2023-03-16T06:31:34;100409.00;;;-0.57;99.82
72570;BME280;60594;50.204;8.844;2023-03-16T06:34:02;100406.66;;;-0.39;99.34
72570;BME280;60594;50.204;8.844;2023-03-16T06:36:29;100414.41;;;-0.37;99.80
72570;BME280;60594;50.204;8.844;2023-03-16T06:38:58;100420.28;;;-0.29;98.61
72570;BME280;60594;50.204;8.844;2023-03-16T06:41:30;100407.88;;;-0.24;98.17
72570;BME280;60594;50.204;8.844;2023-03-16T06:43:57;100401.97;;;-0.29;98.59
72570;BME280;60594;50.204;8.844;2023-03-16T06:46:23;100406.28;;;-0.28;99.30
72570;BME280;60594;50.204;8.844;2023-03-16T06:48:50;100406.22;;;-0.27;99.89
72570;BME280;60594;50.204;8.844;2023-03-16T06:51:18;100402.13;;;-0.09;98.91
72570;BME280;60594;50.204;8.844;2023-03-16T06:53:45;100403.16;;;-0.13;99.62
72570;BME280;60594;50.204;8.844;2023-03-16T06:56:12;100390.75;;;-0.08;99.40
72570;BME280;60594;50.204;8.844;2023-03-16T06:58:41;100397.19;;;0.08;98.60
72570;BME280;60594;50.204;8.844;2023-03-16T07:01:08;100402.53;;;0.05;98.86
72570;BME280;60594;50.204;8.844;2023-03-16T07:03:34;100402.38;;;0.10;98.76
72570;BME280;60594;50.204;8.844;2023-03-16T07:06:25;100402.69;;;0.00;99.60
72570;BME280;60594;50.204;8.844;2023-03-16T07:08:52;100393.84;;;0.03;100.00
72570;BME280;60594;50.204;8.844;2023-03-16T07:11:20;100396.84;;;0.17;99.12
72570;BME280;60594;50.204;8.844;2023-03-16T07:13:47;100398.41;;;0.23;99.11
72570;BME280;60594;50.204;8.844;2023-03-16T07:16:15;100394.13;;;0.20;99.58
72570;BME280;60594;50.204;8.844;2023-03-16T07:18:41;100384.56;;;0.19;99.34
72570;BME280;60594;50.204;8.844;2023-03-16T07:21:11;100400.31;;;0.42;99.21
72570;BME280;60594;50.204;8.844;2023-03-16T07:23:38;100403.81;;;0.43;98.09
72570;BME280;60594;50.204;8.844;2023-03-16T07:26:07;100409.63;;;0.51;98.65
72570;BME280;60594;50.204;8.844;2023-03-16T07:28:35;100412.38;;;0.71;98.45
72570;BME280;60594;50.204;8.844;2023-03-16T07:31:04;100417.09;;;0.84;97.34
72570;BME280;60594;50.204;8.844;2023-03-16T07:33:36;100412.41;;;0.92;97.23
72570;BME280;60594;50.204;8.844;2023-03-16T07:36:05;100411.09;;;1.04;97.24
72570;BME280;60594;50.204;8.844;2023-03-16T07:38:34;100416.94;;;1.10;98.17
72570;BME280;60594;50.204;8.844;2023-03-16T07:41:01;100406.78;;;1.24;97.08
72570;BME280;60594;50.204;8.844;2023-03-16T07:43:28;100415.03;;;1.37;94.89
72570;BME280;60594;50.204;8.844;2023-03-16T07:45:55;100412.13;;;1.44;95.22
72570;BME280;60594;50.204;8.844;2023-03-16T07:48:24;100405.31;;;1.60;93.74
72570;BME280;60594;50.204;8.844;2023-03-16T07:50:55;100411.91;;;1.70;93.67
72570;BME280;60594;50.204;8.844;2023-03-16T07:53:23;100392.06;;;1.63;93.97
72570;BME280;60594;50.204;8.844;2023-03-16T07:55:54;100407.31;;;1.75;93.03
72570;BME280;60594;50.204;8.844;2023-03-16T07:58:21;100400.44;;;1.93;93.54
72570;BME280;60594;50.204;8.844;2023-03-16T08:00:49;100405.22;;;1.83;91.87
72570;BME280;60594;50.204;8.844;2023-03-16T08:03:15;100407.34;;;1.95;91.90
72570;BME280;60594;50.204;8.844;2023-03-16T08:05:43;100396.53;;;2.03;90.38
72570;BME280;60594;50.204;8.844;2023-03-16T08:08:14;100392.63;;;2.31;90.83
72570;BME280;60594;50.204;8.844;2023-03-16T08:10:42;100391.63;;;2.34;90.31
72570;BME280;60594;50.204;8.844;2023-03-16T08:13:14;100399.91;;;2.45;88.69
72570;BME280;60594;50.204;8.844;2023-03-16T08:15:50;100401.47;;;2.49;88.55
72570;BME280;60594;50.204;8.844;2023-03-16T08:18:31;100397.56;;;2.39;89.38
72570;BME280;60594;50.204;8.844;2023-03-16T08:20:57;100399.97;;;2.43;88.62
72570;BME280;60594;50.204;8.844;2023-03-16T08:23:25;100388.25;;;2.70;89.02
72570;BME280;60594;50.204;8.844;2023-03-16T08:25:53;100391.59;;;2.92;88.47
72570;BME280;60594;50.204;8.844;2023-03-16T08:28:22;100394.56;;;3.22;88.01
72570;BME280;60594;50.204;8.844;2023-03-16T08:30:51;100389.97;;;3.44;87.81
72570;BME280;60594;50.204;8.844;2023-03-16T08:33:34;100387.00;;;3.51;84.26
72570;BME280;60594;50.204;8.844;2023-03-16T08:36:01;100373.00;;;3.68;85.97
72570;BME280;60594;50.204;8.844;2023-03-16T08:38:28;100383.56;;;4.02;82.31
72570;BME280;60594;50.204;8.844;2023-03-16T08:40:58;100381.91;;;4.34;81.03
72570;BME280;60594;50.204;8.844;2023-03-16T08:43:26;100389.66;;;4.69;80.61
72570;BME280;60594;50.204;8.844;2023-03-16T08:45:52;100378.91;;;5.05;79.18
72570;BME280;60594;50.204;8.844;2023-03-16T08:48:23;100373.81;;;5.48;76.09
72570;BME280;60594;50.204;8.844;2023-03-16T08:50:50;100369.97;;;5.99;74.93
72570;BME280;60594;50.204;8.844;2023-03-16T08:53:19;100363.53;;;6.46;74.43
72570;BME280;60594;50.204;8.844;2023-03-16T08:55:46;100364.97;;;6.66;69.75
72570;BME280;60594;50.204;8.844;2023-03-16T08:58:13;100364.28;;;6.76;71.45
72570;BME280;60594;50.204;8.844;2023-03-16T09:00:40;100366.06;;;7.18;68.91
72570;BME280;60594;50.204;8.844;2023-03-16T09:03:07;100369.94;;;7.53;65.94
72570;BME280;60594;50.204;8.844;2023-03-16T09:05:33;100367.41;;;7.52;69.69
72570;BME280;60594;50.204;8.844;2023-03-16T09:08:00;100365.22;;;7.97;66.02
72570;BME280;60594;50.204;8.844;2023-03-16T09:10:26;100351.13;;;7.44;64.36
72570;BME280;60594;50.204;8.844;2023-03-16T09:12:54;100352.59;;;8.01;67.75
72570;BME280;60594;50.204;8.844;2023-03-16T09:15:20;100348.78;;;8.17;64.05
72570;BME280;60594;50.204;8.844;2023-03-16T09:17:47;100301.03;;;8.30;65.71
72570;BME280;60594;50.204;8.844;2023-03-16T09:20:15;100342.19;;;8.98;62.09
72570;BME280;60594;50.204;8.844;2023-03-16T09:22:42;100348.66;;;8.58;60.58
72570;BME280;60594;50.204;8.844;2023-03-16T09:25:09;100364.34;;;8.48;61.34
72570;BME280;60594;50.204;8.844;2023-03-16T09:27:36;100357.44;;;8.58;60.66
72570;BME280;60594;50.204;8.844;2023-03-16T09:30:04;100359.88;;;8.99;63.38
72570;BME280;60594;50.204;8.844;2023-03-16T09:32:32;100344.56;;;8.90;59.10
72570;BME280;60594;50.204;8.844;2023-03-16T09:34:59;100337.69;;;8.62;59.55
72570;BME280;60594;50.204;8.844;2023-03-16T09:37:25;100350.19;;;7.71;60.89
72570;BME280;60594;50.204;8.844;2023-03-16T09:39:52;100342.97;;;7.73;61.86
72570;BME280;60594;50.204;8.844;2023-03-16T09:42:49;100345.53;;;8.26;60.53
72570;BME280;60594;50.204;8.844;2023-03-16T09:45:34;100329.28;;;8.56;60.40
72570;BME280;60594;50.204;8.844;2023-03-16T09:48:04;100323.28;;;8.90;57.56
72570;BME280;60594;50.204;8.844;2023-03-16T09:50:35;100328.19;;;9.32;59.22
72570;BME280;60594;50.204;8.844;2023-03-16T09:55:38;100331.63;;;8.73;59.13
72570;BME280;60594;50.204;8.844;2023-03-16T09:58:18;100325.94;;;9.38;60.95
72570;BME280;60594;50.204;8.844;2023-03-16T10:00:58;100330.34;;;9.50;58.35
72570;BME280;60594;50.204;8.844;2023-03-16T10:03:53;100315.31;;;9.96;58.75
72570;BME280;60594;50.204;8.844;2023-03-16T10:06:26;100323.53;;;9.46;54.89
72570;BME280;60594;50.204;8.844;2023-03-16T10:11:37;100329.19;;;8.57;59.09
72570;BME280;60594;50.204;8.844;2023-03-16T10:20:02;100322.63;;;9.35;59.48
72570;BME280;60594;50.204;8.844;2023-03-16T10:22:37;100326.69;;;9.75;56.00
72570;BME280;60594;50.204;8.844;2023-03-16T10:25:13;100328.38;;;9.05;57.01
72570;BME280;60594;50.204;8.844;2023-03-16T10:27:43;100337.25;;;8.31;58.45
72570;BME280;60594;50.204;8.844;2023-03-16T10:30:22;100336.19;;;8.58;58.56
72570;BME280;60594;50.204;8.844;2023-03-16T10:32:49;100329.78;;;8.98;59.62
72570;BME280;60594;50.204;8.844;2023-03-16T10:46:26;100315.69;;;7.84;60.00
72570;BME280;60594;50.204;8.844;2023-03-16T10:48:58;100309.25;;;7.75;61.89
72570;BME280;60594;50.204;8.844;2023-03-16T10:51:31;100316.81;;;8.06;61.34
72570;BME280;60594;50.204;8.844;2023-03-16T10:56:51;100321.28;;;8.18;59.97
72570;BME280;60594;50.204;8.844;2023-03-16T10:59:27;100315.53;;;7.99;59.83
72570;BME280;60594;50.204;8.844;2023-03-16T11:01:55;100305.22;;;7.82;60.69
72570;BME280;60594;50.204;8.844;2023-03-16T11:04:22;100315.53;;;7.99;59.71
72570;BME280;60594;50.204;8.844;2023-03-16T11:06:56;100305.47;;;8.79;60.33
72570;BME280;60594;50.204;8.844;2023-03-16T11:09:33;100301.28;;;9.47;56.92
72570;BME280;60594;50.204;8.844;2023-03-16T11:12:18;100302.16;;;9.48;57.93
72570;BME280;60594;50.204;8.844;2023-03-16T11:14:46;100302.63;;;9.76;55.89
72570;BME280;60594;50.204;8.844;2023-03-16T11:17:28;100294.19;;;9.82;54.31
72570;BME280;60594;50.204;8.844;2023-03-16T11:20:19;100287.19;;;9.81;55.54
72570;BME280;60594;50.204;8.844;2023-03-16T11:22:48;100285.31;;;9.71;55.28
72570;BME280;60594;50.204;8.844;2023-03-16T11:25:26;100281.63;;;10.30;55.53
72570;BME280;60594;50.204;8.844;2023-03-16T11:28:03;100287.94;;;10.40;53.82
72570;BME280;60594;50.204;8.844;2023-03-16T11:31:05;100288.31;;;10.01;54.04
72570;BME280;60594;50.204;8.844;2023-03-16T11:33:34;100272.31;;;10.35;57.00
72570;BME280;60594;50.204;8.844;2023-03-16T11:42:17;100269.75;;;10.34;53.81
72570;BME280;60594;50.204;8.844;2023-03-16T11:44:54;100272.13;;;9.69;54.75
72570;BME280;60594;50.204;8.844;2023-03-16T11:47:38;100273.28;;;9.89;55.74
72570;BME280;60594;50.204;8.844;2023-03-16T11:50:32;100264.47;;;9.99;59.14
72570;BME280;60594;50.204;8.844;2023-03-16T11:58:52;100261.31;;;10.51;56.95
72570;BME280;60594;50.204;8.844;2023-03-16T12:01:24;100252.97;;;10.45;54.10
72570;BME280;60594;50.204;8.844;2023-03-16T12:04:05;100244.97;;;10.33;56.52
72570;BME280;60594;50.204;8.844;2023-03-16T12:12:28;100235.59;;;10.83;54.61
72570;BME280;60594;50.204;8.844;2023-03-16T12:17:31;100233.31;;;9.78;58.09
72570;BME280;60594;50.204;8.844;2023-03-16T12:20:04;100247.16;;;9.48;57.21
72570;BME280;60594;50.204;8.844;2023-03-16T12:22:49;100234.47;;;9.28;58.25
72570;BME280;60594;50.204;8.844;2023-03-16T12:25:21;100217.34;;;9.09;60.34
72570;BME280;60594;50.204;8.844;2023-03-16T12:27:53;100229.69;;;9.10;59.04
72570;BME280;60594;50.204;8.844;2023-03-16T12:30:31;100237.06;;;9.17;58.11
72570;BME280;60594;50.204;8.844;2023-03-16T12:33:23;100211.97;;;8.74;59.97
72570;BME280;60594;50.204;8.844;2023-03-16T12:39:07;100215.25;;;9.01;61.30
72570;BME280;60594;50.204;8.844;2023-03-16T12:42:47;100207.50;;;8.98;60.75
72570;BME280;60594;50.204;8.844;2023-03-16T12:45:02;100197.09;;;9.19;64.84
72570;BME280;60594;50.204;8.844;2023-03-16T12:47:41;100194.44;;;9.19;60.31
72570;BME280;60594;50.204;8.844;2023-03-16T12:50:16;100196.06;;;9.32;60.62
72570;BME280;60594;50.204;8.844;2023-03-16T12:52:52;100205.06;;;9.19;60.41
72570;BME280;60594;50.204;8.844;2023-03-16T12:57:49;100198.16;;;9.16;60.49
72570;BME280;60594;50.204;8.844;2023-03-16T13:00:18;100195.50;;;9.40;60.04
72570;BME280;60594;50.204;8.844;2023-03-16T13:02:53;100188.44;;;9.28;58.28
72570;BME280;60594;50.204;8.844;2023-03-16T13:05:32;100171.00;;;9.24;58.49
72570;BME280;60594;50.204;8.844;2023-03-16T13:08:18;100159.78;;;9.31;59.52
72570;BME280;60594;50.204;8.844;2023-03-16T13:11:00;100170.53;;;9.75;63.39
72570;BME280;60594;50.204;8.844;2023-03-16T13:13:29;100168.13;;;9.72;59.06
72570;BME280;60594;50.204;8.844;2023-03-16T13:16:05;100172.78;;;9.47;60.54
72570;BME280;60594;50.204;8.844;2023-03-16T13:18:38;100159.31;;;9.26;60.18
72570;BME280;60594;50.204;8.844;2023-03-16T13:21:40;100167.19;;;9.39;61.63
72570;BME280;60594;50.204;8.844;2023-03-16T13:24:25;100164.31;;;9.18;61.72
72570;BME280;60594;50.204;8.844;2023-03-16T13:27:02;100139.03;;;9.13;60.57
72570;BME280;60594;50.204;8.844;2023-03-16T13:29:32;100153.88;;;9.28;61.13
72570;BME280;60594;50.204;8.844;2023-03-16T13:32:06;100145.16;;;9.26;61.88
72570;BME280;60594;50.204;8.844;2023-03-16T13:34:47;100119.38;;;9.15;60.39
72570;BME280;60594;50.204;8.844;2023-03-16T13:37:19;100117.19;;;9.55;65.74
72570;BME280;60594;50.204;8.844;2023-03-16T13:39:55;100126.88;;;9.78;62.24
72570;BME280;60594;50.204;8.844;2023-03-16T13:42:30;100114.28;;;9.69;58.98
72570;BME280;60594;50.204;8.844;2023-03-16T13:45:10;100112.72;;;9.88;59.79
72570;BME280;60594;50.204;8.844;2023-03-16T13:47:42;100148.91;;;9.91;57.96
72570;BME280;60594;50.204;8.844;2023-03-16T13:50:12;100123.34;;;9.66;59.04
72570;BME280;60594;50.204;8.844;2023-03-16T13:52:42;100121.56;;;10.00;58.59
72570;BME280;60594;50.204;8.844;2023-03-16T13:55:15;100112.16;;;10.18;58.59
72570;BME280;60594;50.204;8.844;2023-03-16T13:57:44;100131.63;;;10.29;57.65
72570;BME280;60594;50.204;8.844;2023-03-16T14:00:25;100133.91;;;10.34;56.53
72570;BME280;60594;50.204;8.844;2023-03-16T14:02:58;100126.50;;;10.49;57.15
72570;BME280;60594;50.204;8.844;2023-03-16T14:05:29;100119.91;;;10.75;60.77
72570;BME280;60594;50.204;8.844;2023-03-16T14:07:58;100106.53;;;10.54;56.18
72570;BME280;60594;50.204;8.844;2023-03-16T14:10:34;100097.50;;;10.23;56.43
72570;BME280;60594;50.204;8.844;2023-03-16T14:15:54;100101.47;;;9.85;60.40
72570;BME280;60594;50.204;8.844;2023-03-16T14:21:07;100091.91;;;9.93;58.77